sensor_id;sensor_type;location;lat;lon;timestamp;temperature;humidity
21648;DHT22;10985;54.182;7.890;2023-06-22T00:02:06;17.70;99.90
21648;DHT22;10985;54.182;7.890;2023-06-22T00:04:31;17.70;99.90
21648;DHT22;10985;54.182;7.890;2023-06-22T00:06:57;17.70;99.90
21648;DHT22;10985;54.182;7.890;2023-06-22T00:09:22;17.70;99.90
21648;DHT22;10985;54.182;7.890;2023-06-22T00:11:48;17.70;99.90
21648;DHT22;10985;54.182;7.890;2023-06-22T00:14:13;17.70;99.90
21648;DHT22;10985;54.182;7.890;2023-06-22T00:16:39;17.60;99.90
21648;DHT22;10985;54.182;7.890;2023-06-22T00:19:04;17.60;99.90
21648;DHT22;10985;54.182;7.890;2023-06-22T00:21:31;17.60;99.90
21648;DHT22;10985;54.182;7.890;2023-06-22T00:23:56;17.60;99.90
21648;DHT22;10985;54.182;7.890;2023-06-22T00:26:23;17.60;99.90
21648;DHT22;10985;54.182;7.890;2023-06-22T00:28:48;17.50;99.90
21648;DHT22;10985;54.182;7.890;2023-06-22T00:31:14;17.50;99.90
21648;DHT22;10985;54.182;7.890;2023-06-22T00:33:39;17.50;99.90
21648;DHT22;10985;54.182;7.890;2023-06-22T00:36:05;17.60;99.90
21648;DHT22;10985;54.182;7.890;2023-06-22T00:38:31;17.60;99.90
21648;DHT22;10985;54.182;7.890;2023-06-22T00:40:57;17.60;99.90
21648;DHT22;10985;54.182;7.890;2023-06-22T00:43:22;17.60;99.90
21648;DHT22;10985;54.182;7.890;2023-06-22T00:45:48;17.60;99.90
21648;DHT22;10985;54.182;7.890;2023-06-22T00:48:14;17.60;99.90
21648;DHT22;10985;54.182;7.890;2023-06-22T00:50:40;17.60;99.90
21648;DHT22;10985;54.182;7.890;2023-06-22T00:53:07;17.60;99.90
21648;DHT22;10985;54.182;7.890;2023-06-22T00:55:38;17.60;99.90
21648;DHT22;10985;54.182;7.890;2023-06-22T00:58:06;17.60;99.90
21648;DHT22;10985;54.182;7.890;2023-06-22T01:00:35;17.60;99.90
21648;DHT22;10985;54.182;7.890;2023-06-22T01:03:02;17.60;99.90
21648;DHT22;10985;54.182;7.890;2023-06-22T01:05:27;17.60;99.90
21648;DHT22;10985;54.182;7.890;2023-06-22T01:10:33;17.60;99.90
21648;DHT22;10985;54.182;7.890;2023-06-22T01:13:07;17.60;99.90
21648;DHT22;10985;54.182;7.890;2023-06-22T01:15:49;17.60;99.90
21648;DHT22;10985;54.182;7.890;2023-06-22T01:18:17;17.70;99.90
21648;DHT22;10985;54.182;7.890;2023-06-22T01:20:43;17.60;99.90
21648;DHT22;10985;54.182;7.890;2023-06-22T01:26:14;17.60;99.90
21648;DHT22;10985;54.182;7.890;2023-06-22T01:28:45;17.60;99.90
21648;DHT22;10985;54.182;7.890;2023-06-22T01:31:12;17.60;99.90
21648;DHT22;10985;54.182;7.890;2023-06-22T01:33:42;17.60;99.90
21648;DHT22;10985;54.182;7.890;2023-06-22T01:36:08;17.50;99.90
21648;DHT22;10985;54.182;7.890;2023-06-22T01:38:35;17.50;99.90
21648;DHT22;10985;54.182;7.890;2023-06-22T01:41:02;17.50;99.90
21648;DHT22;10985;54.182;7.890;2023-06-22T01:43:28;17.50;99.90
21648;DHT22;10985;54.182;7.890;2023-06-22T01:45:55;17.40;99.90
21648;DHT22;10985;54.182;7.890;2023-06-22T01:48:21;17.40;99.90
21648;DHT22;10985;54.182;7.890;2023-06-22T01:50:48;17.40;99.90
21648;DHT22;10985;54.182;7.890;2023-06-22T01:53:13;17.40;99.90
21648;DHT22;10985;54.182;7.890;2023-06-22T01:55:39;17.40;99.90
21648;DHT22;10985;54.182;7.890;2023-06-22T01:58:05;17.30;99.90
21648;DHT22;10985;54.182;7.890;2023-06-22T02:00:33;17.30;99.90
21648;DHT22;10985;54.182;7.890;2023-06-22T02:03:05;17.30;99.90
21648;DHT22;10985;54.182;7.890;2023-06-22T02:05:39;17.30;99.90
21648;DHT22;10985;54.182;7.890;2023-06-22T02:08:15;17.30;99.90
21648;DHT22;10985;54.182;7.890;2023-06-22T02:10:44;17.30;99.90
21648;DHT22;10985;54.182;7.890;2023-06-22T02:13:11;17.30;99.90
21648;DHT22;10985;54.182;7.890;2023-06-22T02:15:38;17.20;99.90
21648;DHT22;10985;54.182;7.890;2023-06-22T02:18:04;17.20;99.90
21648;DHT22;10985;54.182;7.890;2023-06-22T02:20:30;17.20;99.90
21648;DHT22;10985;54.182;7.890;2023-06-22T02:22:55;17.20;99.90
21648;DHT22;10985;54.182;7.890;2023-06-22T02:25:21;17.20;99.90
21648;DHT22;10985;54.182;7.890;2023-06-22T02:27:47;17.20;99.90
21648;DHT22;10985;54.182;7.890;2023-06-22T02:30:13;17.20;99.90
21648;DHT22;10985;54.182;7.890;2023-06-22T02:32:40;17.20;99.90
21648;DHT22;10985;54.182;7.890;2023-06-22T02:35:08;17.10;99.90
21648;DHT22;10985;54.182;7.890;2023-06-22T02:37:38;17.10;99.90
21648;DHT22;10985;54.182;7.890;2023-06-22T02:40:07;17.10;99.90
21648;DHT22;10985;54.182;7.890;2023-06-22T02:42:34;17.00;99.90
21648;DHT22;10985;54.182;7.890;2023-06-22T02:45:00;17.10;99.90
21648;DHT22;10985;54.182;7.890;2023-06-22T02:47:26;17.00;99.90
21648;DHT22;10985;54.182;7.890;2023-06-22T02:49:51;17.00;99.90
21648;DHT22;10985;54.182;7.890;2023-06-22T02:52:17;17.00;99.90
21648;DHT22;10985;54.182;7.890;2023-06-22T02:54:42;17.00;99.90
21648;DHT22;10985;54.182;7.890;2023-06-22T02:57:10;17.00;99.90
21648;DHT22;10985;54.182;7.890;2023-06-22T02:59:41;17.00;99.90
21648;DHT22;10985;54.182;7.890;2023-06-22T03:02:10;17.00;99.90
21648;DHT22;10985;54.182;7.890;2023-06-22T03:04:36;16.90;99.90
21648;DHT22;10985;54.182;7.890;2023-06-22T03:07:02;17.00;99.90
21648;DHT22;10985;54.182;7.890;2023-06-22T03:09:28;17.00;99.90
21648;DHT22;10985;54.182;7.890;2023-06-22T03:11:54;17.00;99.90
21648;DHT22;10985;54.182;7.890;2023-06-22T03:14:20;16.90;99.90
21648;DHT22;10985;54.182;7.890;2023-06-22T03:16:46;17.00;99.90
21648;DHT22;10985;54.182;7.890;2023-06-22T03:19:11;17.00;99.90
21648;DHT22;10985;54.182;7.890;2023-06-22T03:21:37;17.00;99.90
21648;DHT22;10985;54.182;7.890;2023-06-22T03:24:04;17.00;99.90
21648;DHT22;10985;54.182;7.890;2023-06-22T03:26:30;17.00;99.90
21648;DHT22;10985;54.182;7.890;2023-06-22T03:28:55;17.00;99.90
21648;DHT22;10985;54.182;7.890;2023-06-22T03:31:21;16.90;99.90
21648;DHT22;10985;54.182;7.890;2023-06-22T03:33:50;17.00;99.90
21648;DHT22;10985;54.182;7.890;2023-06-22T03:36:19;17.00;99.90
21648;DHT22;10985;54.182;7.890;2023-06-22T03:38:46;17.00;99.90
21648;DHT22;10985;54.182;7.890;2023-06-22T03:41:11;17.00;99.90
21648;DHT22;10985;54.182;7.890;2023-06-22T03:43:37;17.00;99.90
21648;DHT22;10985;54.182;7.890;2023-06-22T03:46:02;17.00;99.90
21648;DHT22;10985;54.182;7.890;2023-06-22T03:48:28;17.00;99.90
21648;DHT22;10985;54.182;7.890;2023-06-22T03:50:53;17.00;99.90
21648;DHT22;10985;54.182;7.890;2023-06-22T03:53:19;17.00;99.90
21648;DHT22;10985;54.182;7.890;2023-06-22T03:55:52;17.00;99.90
21648;DHT22;10985;54.182;7.890;2023-06-22T03:58:18;17.00;99.90
21648;DHT22;10985;54.182;7.890;2023-06-22T04:00:48;17.00;99.90
21648;DHT22;10985;54.182;7.890;2023-06-22T04:03:17;17.00;99.90
21648;DHT22;10985;54.182;7.890;2023-06-22T04:05:46;17.00;99.90
21648;DHT22;10985;54.182;7.890;2023-06-22T04:08:13;17.10;99.90
21648;DHT22;10985;54.182;7.890;2023-06-22T04:10:38;17.10;99.90
21648;DHT22;10985;54.182;7.890;2023-06-22T04:13:04;17.10;99.90
21648;DHT22;10985;54.182;7.890;2023-06-22T04:15:29;17.10;99.90
21648;DHT22;10985;54.182;7.890;2023-06-22T04:17:55;17.10;99.90
21648;DHT22;10985;54.182;7.890;2023-06-22T04:20:21;17.20;99.90
21648;DHT22;10985;54.182;7.890;2023-06-22T04:22:47;17.20;99.90
21648;DHT22;10985;54.182;7.890;2023-06-22T04:25:12;17.20;99.90
21648;DHT22;10985;54.182;7.890;2023-06-22T04:27:38;17.20;99.90
21648;DHT22;10985;54.182;7.890;2023-06-22T04:30:07;17.30;99.90
21648;DHT22;10985;54.182;7.890;2023-06-22T04:32:34;17.30;99.90
21648;DHT22;10985;54.182;7.890;2023-06-22T04:35:02;17.40;99.90
21648;DHT22;10985;54.182;7.890;2023-06-22T04:37:27;17.40;99.90
21648;DHT22;10985;54.182;7.890;2023-06-22T04:39:53;17.40;99.90
21648;DHT22;10985;54.182;7.890;2023-06-22T04:42:18;17.40;99.90
21648;DHT22;10985;54.182;7.890;2023-06-22T04:44:44;17.40;99.90
21648;DHT22;10985;54.182;7.890;2023-06-22T04:47:09;17.50;99.90
21648;DHT22;10985;54.182;7.890;2023-06-22T04:49:36;17.50;99.90
21648;DHT22;10985;54.182;7.890;2023-06-22T04:52:04;17.60;99.90
21648;DHT22;10985;54.182;7.890;2023-06-22T04:54:30;17.60;99.90
21648;DHT22;10985;54.182;7.890;2023-06-22T04:57:00;17.70;99.90
21648;DHT22;10985;54.182;7.890;2023-06-22T04:59:27;17.80;99.90
21648;DHT22;10985;54.182;7.890;2023-06-22T05:01:56;18.00;99.90
21648;DHT22;10985;54.182;7.890;2023-06-22T05:04:22;18.30;99.90
21648;DHT22;10985;54.182;7.890;2023-06-22T05:06:52;18.50;99.90
21648;DHT22;10985;54.182;7.890;2023-06-22T05:09:18;18.60;99.90
21648;DHT22;10985;54.182;7.890;2023-06-22T05:11:44;18.70;99.90
21648;DHT22;10985;54.182;7.890;2023-06-22T05:14:10;18.90;99.90
21648;DHT22;10985;54.182;7.890;2023-06-22T05:16:36;19.10;99.90
21648;DHT22;10985;54.182;7.890;2023-06-22T05:19:02;19.30;99.90
21648;DHT22;10985;54.182;7.890;2023-06-22T05:21:31;19.50;99.90
21648;DHT22;10985;54.182;7.890;2023-06-22T05:23:57;19.60;99.90
21648;DHT22;10985;54.182;7.890;2023-06-22T05:26:26;19.80;99.90
21648;DHT22;10985;54.182;7.890;2023-06-22T05:28:52;20.00;99.90
21648;DHT22;10985;54.182;7.890;2023-06-22T05:31:18;20.20;99.90
21648;DHT22;10985;54.182;7.890;2023-06-22T05:33:49;20.40;99.90
21648;DHT22;10985;54.182;7.890;2023-06-22T05:36:15;20.50;99.90
21648;DHT22;10985;54.182;7.890;2023-06-22T05:38:41;20.60;99.90
21648;DHT22;10985;54.182;7.890;2023-06-22T05:41:07;20.70;99.90
21648;DHT22;10985;54.182;7.890;2023-06-22T05:43:33;20.80;99.90
21648;DHT22;10985;54.182;7.890;2023-06-22T05:46:00;20.90;99.90
21648;DHT22;10985;54.182;7.890;2023-06-22T05:48:26;20.90;99.90
21648;DHT22;10985;54.182;7.890;2023-06-22T05:50:52;20.90;99.90
21648;DHT22;10985;54.182;7.890;2023-06-22T05:53:17;20.90;99.90
21648;DHT22;10985;54.182;7.890;2023-06-22T05:55:43;20.90;99.90
21648;DHT22;10985;54.182;7.890;2023-06-22T05:58:08;20.90;99.90
21648;DHT22;10985;54.182;7.890;2023-06-22T06:00:35;20.90;99.90
21648;DHT22;10985;54.182;7.890;2023-06-22T06:03:00;20.90;99.90
21648;DHT22;10985;54.182;7.890;2023-06-22T06:05:33;20.90;99.90
21648;DHT22;10985;54.182;7.890;2023-06-22T06:08:00;20.90;99.90
21648;DHT22;10985;54.182;7.890;2023-06-22T06:10:25;21.00;99.90
21648;DHT22;10985;54.182;7.890;2023-06-22T06:12:52;21.10;99.90
21648;DHT22;10985;54.182;7.890;2023-06-22T06:15:17;21.20;99.90
21648;DHT22;10985;54.182;7.890;2023-06-22T06:20:12;21.40;99.90
21648;DHT22;10985;54.182;7.890;2023-06-22T06:22:38;21.50;99.90
21648;DHT22;10985;54.182;7.890;2023-06-22T06:25:04;21.60;99.90
21648;DHT22;10985;54.182;7.890;2023-06-22T06:27:30;21.60;99.90
21648;DHT22;10985;54.182;7.890;2023-06-22T06:29:55;21.70;99.90
21648;DHT22;10985;54.182;7.890;2023-06-22T06:32:21;21.70;99.90
21648;DHT22;10985;54.182;7.890;2023-06-22T06:34:46;21.80;99.90
21648;DHT22;10985;54.182;7.890;2023-06-22T06:37:12;21.90;99.90
21648;DHT22;10985;54.182;7.890;2023-06-22T06:39:37;22.10;99.90
21648;DHT22;10985;54.182;7.890;2023-06-22T06:42:04;22.10;99.90
21648;DHT22;10985;54.182;7.890;2023-06-22T06:44:30;22.20;99.90
21648;DHT22;10985;54.182;7.890;2023-06-22T06:46:55;22.30;99.90
21648;DHT22;10985;54.182;7.890;2023-06-22T06:49:21;22.30;99.90
21648;DHT22;10985;54.182;7.890;2023-06-22T06:51:46;22.40;99.90
21648;DHT22;10985;54.182;7.890;2023-06-22T06:54:12;22.40;99.90
21648;DHT22;10985;54.182;7.890;2023-06-22T06:56:37;22.50;99.90
21648;DHT22;10985;54.182;7.890;2023-06-22T06:59:03;22.60;99.90
21648;DHT22;10985;54.182;7.890;2023-06-22T07:01:29;22.70;99.90
21648;DHT22;10985;54.182;7.890;2023-06-22T07:03:59;22.80;99.90
21648;DHT22;10985;54.182;7.890;2023-06-22T07:06:24;22.90;99.90
21648;DHT22;10985;54.182;7.890;2023-06-22T07:08:55;23.00;99.90
21648;DHT22;10985;54.182;7.890;2023-06-22T07:11:20;23.10;99.90
21648;DHT22;10985;54.182;7.890;2023-06-22T07:13:46;23.20;99.90
21648;DHT22;10985;54.182;7.890;2023-06-22T07:16:11;23.20;99.90
21648;DHT22;10985;54.182;7.890;2023-06-22T07:18:39;23.30;99.90
21648;DHT22;10985;54.182;7.890;2023-06-22T07:21:05;23.40;99.90
21648;DHT22;10985;54.182;7.890;2023-06-22T07:23:32;23.50;99.90
21648;DHT22;10985;54.182;7.890;2023-06-22T07:25:58;23.70;99.90
21648;DHT22;10985;54.182;7.890;2023-06-22T07:28:27;23.70;99.90
21648;DHT22;10985;54.182;7.890;2023-06-22T07:30:52;23.80;99.90
21648;DHT22;10985;54.182;7.890;2023-06-22T07:33:18;23.90;99.90
21648;DHT22;10985;54.182;7.890;2023-06-22T07:35:45;24.00;99.90
21648;DHT22;10985;54.182;7.890;2023-06-22T07:38:10;24.10;99.90
21648;DHT22;10985;54.182;7.890;2023-06-22T07:40:36;24.10;99.90
21648;DHT22;10985;54.182;7.890;2023-06-22T07:43:02;24.20;99.90
21648;DHT22;10985;54.182;7.890;2023-06-22T07:45:29;24.30;99.90
21648;DHT22;10985;54.182;7.890;2023-06-22T07:47:54;24.40;99.90
21648;DHT22;10985;54.182;7.890;2023-06-22T07:50:20;24.40;99.90
21648;DHT22;10985;54.182;7.890;2023-06-22T07:52:45;24.50;99.90
21648;DHT22;10985;54.182;7.890;2023-06-22T07:55:12;24.60;99.90
21648;DHT22;10985;54.182;7.890;2023-06-22T07:57:38;24.60;99.90
21648;DHT22;10985;54.182;7.890;2023-06-22T08:00:05;24.70;99.90
21648;DHT22;10985;54.182;7.890;2023-06-22T08:02:44;24.70;99.90
21648;DHT22;10985;54.182;7.890;2023-06-22T08:05:10;24.80;99.90
21648;DHT22;10985;54.182;7.890;2023-06-22T08:07:37;24.80;99.90
21648;DHT22;10985;54.182;7.890;2023-06-22T08:10:03;24.90;99.90
21648;DHT22;10985;54.182;7.890;2023-06-22T08:12:29;24.90;99.90
21648;DHT22;10985;54.182;7.890;2023-06-22T08:14:55;25.00;99.90
21648;DHT22;10985;54.182;7.890;2023-06-22T08:17:22;25.20;99.90
21648;DHT22;10985;54.182;7.890;2023-06-22T08:19:48;25.20;99.90
21648;DHT22;10985;54.182;7.890;2023-06-22T08:22:13;25.20;99.90
21648;DHT22;10985;54.182;7.890;2023-06-22T08:24:39;25.30;99.90
21648;DHT22;10985;54.182;7.890;2023-06-22T08:27:07;25.40;99.90
21648;DHT22;10985;54.182;7.890;2023-06-22T08:29:34;25.40;99.90
21648;DHT22;10985;54.182;7.890;2023-06-22T08:31:59;25.50;99.90
21648;DHT22;10985;54.182;7.890;2023-06-22T08:34:25;25.50;99.90
21648;DHT22;10985;54.182;7.890;2023-06-22T08:36:52;25.60;99.90
21648;DHT22;10985;54.182;7.890;2023-06-22T08:39:19;25.70;99.90
21648;DHT22;10985;54.182;7.890;2023-06-22T08:41:46;25.70;99.90
21648;DHT22;10985;54.182;7.890;2023-06-22T08:44:12;25.80;99.90
21648;DHT22;10985;54.182;7.890;2023-06-22T08:46:38;25.90;99.90
21648;DHT22;10985;54.182;7.890;2023-06-22T08:49:05;26.00;99.90
21648;DHT22;10985;54.182;7.890;2023-06-22T08:51:31;26.20;99.90
21648;DHT22;10985;54.182;7.890;2023-06-22T08:53:57;26.40;99.90
21648;DHT22;10985;54.182;7.890;2023-06-22T08:56:22;26.80;99.90
21648;DHT22;10985;54.182;7.890;2023-06-22T08:58:48;27.30;99.90
21648;DHT22;10985;54.182;7.890;2023-06-22T09:01:13;27.70;99.90
21648;DHT22;10985;54.182;7.890;2023-06-22T09:03:41;28.00;99.90
21648;DHT22;10985;54.182;7.890;2023-06-22T09:06:06;28.20;99.90
21648;DHT22;10985;54.182;7.890;2023-06-22T09:08:34;28.30;99.90
21648;DHT22;10985;54.182;7.890;2023-06-22T09:11:00;28.40;99.90
21648;DHT22;10985;54.182;7.890;2023-06-22T09:13:25;28.40;99.90
21648;DHT22;10985;54.182;7.890;2023-06-22T09:15:51;28.60;99.90
21648;DHT22;10985;54.182;7.890;2023-06-22T09:18:17;28.90;99.90
21648;DHT22;10985;54.182;7.890;2023-06-22T09:20:43;29.30;99.90
21648;DHT22;10985;54.182;7.890;2023-06-22T09:23:08;29.80;99.90
21648;DHT22;10985;54.182;7.890;2023-06-22T09:25:34;30.40;99.90
21648;DHT22;10985;54.182;7.890;2023-06-22T09:27:59;30.90;99.90
21648;DHT22;10985;54.182;7.890;2023-06-22T09:30:25;31.30;99.90
21648;DHT22;10985;54.182;7.890;2023-06-22T09:32:50;31.50;99.90
21648;DHT22;10985;54.182;7.890;2023-06-22T09:35:16;31.70;99.90
21648;DHT22;10985;54.182;7.890;2023-06-22T09:37:41;31.90;99.90
21648;DHT22;10985;54.182;7.890;2023-06-22T09:40:07;32.10;99.90
21648;DHT22;10985;54.182;7.890;2023-06-22T09:42:35;32.20;99.90
21648;DHT22;10985;54.182;7.890;2023-06-22T09:45:01;32.20;99.90
21648;DHT22;10985;54.182;7.890;2023-06-22T09:47:27;32.20;99.90
21648;DHT22;10985;54.182;7.890;2023-06-22T09:49:53;32.20;99.90
21648;DHT22;10985;54.182;7.890;2023-06-22T09:52:21;32.20;99.90
21648;DHT22;10985;54.182;7.890;2023-06-22T09:54:46;32.20;99.90
21648;DHT22;10985;54.182;7.890;2023-06-22T09:57:12;32.30;99.90
21648;DHT22;10985;54.182;7.890;2023-06-22T09:59:38;32.20;99.90
21648;DHT22;10985;54.182;7.890;2023-06-22T10:02:05;32.20;99.90
21648;DHT22;10985;54.182;7.890;2023-06-22T10:04:31;32.30;99.90
21648;DHT22;10985;54.182;7.890;2023-06-22T10:06:56;32.20;99.90
21648;DHT22;10985;54.182;7.890;2023-06-22T10:09:22;32.20;99.90
21648;DHT22;10985;54.182;7.890;2023-06-22T10:11:47;32.20;99.90
21648;DHT22;10985;54.182;7.890;2023-06-22T10:14:13;32.30;99.90
21648;DHT22;10985;54.182;7.890;2023-06-22T10:16:39;32.40;99.90
21648;DHT22;10985;54.182;7.890;2023-06-22T10:19:06;32.50;99.90
21648;DHT22;10985;54.182;7.890;2023-06-22T10:21:32;32.70;99.90
21648;DHT22;10985;54.182;7.890;2023-06-22T10:23:58;32.90;99.90
21648;DHT22;10985;54.182;7.890;2023-06-22T10:26:24;33.10;99.90
21648;DHT22;10985;54.182;7.890;2023-06-22T10:28:51;33.40;99.90
21648;DHT22;10985;54.182;7.890;2023-06-22T10:31:16;33.60;99.90
21648;DHT22;10985;54.182;7.890;2023-06-22T10:33:42;33.80;99.90
21648;DHT22;10985;54.182;7.890;2023-06-22T10:36:10;34.00;99.90
21648;DHT22;10985;54.182;7.890;2023-06-22T10:38:35;34.10;99.90
21648;DHT22;10985;54.182;7.890;2023-06-22T10:41:01;34.30;99.90
21648;DHT22;10985;54.182;7.890;2023-06-22T10:43:27;34.50;99.90
21648;DHT22;10985;54.182;7.890;2023-06-22T10:45:53;34.60;99.90
21648;DHT22;10985;54.182;7.890;2023-06-22T10:48:18;34.80;99.90
21648;DHT22;10985;54.182;7.890;2023-06-22T10:50:44;35.00;99.90
21648;DHT22;10985;54.182;7.890;2023-06-22T10:53:09;35.20;99.90
21648;DHT22;10985;54.182;7.890;2023-06-22T10:55:35;35.40;99.90
21648;DHT22;10985;54.182;7.890;2023-06-22T10:58:00;35.70;99.90
21648;DHT22;10985;54.182;7.890;2023-06-22T11:00:26;35.90;99.90
21648;DHT22;10985;54.182;7.890;2023-06-22T11:02:51;36.00;99.80
21648;DHT22;10985;54.182;7.890;2023-06-22T11:05:17;36.20;99.40
21648;DHT22;10985;54.182;7.890;2023-06-22T11:07:43;36.30;98.60
21648;DHT22;10985;54.182;7.890;2023-06-22T11:10:10;36.50;97.80
21648;DHT22;10985;54.182;7.890;2023-06-22T11:12:35;36.50;97.50
21648;DHT22;10985;54.182;7.890;2023-06-22T11:15:01;36.60;96.30
21648;DHT22;10985;54.182;7.890;2023-06-22T11:17:27;36.60;96.90
21648;DHT22;10985;54.182;7.890;2023-06-22T11:19:52;36.80;95.70
21648;DHT22;10985;54.182;7.890;2023-06-22T11:22:18;36.80;94.10
21648;DHT22;10985;54.182;7.890;2023-06-22T11:24:43;36.80;92.90
21648;DHT22;10985;54.182;7.890;2023-06-22T11:27:08;36.70;93.30
21648;DHT22;10985;54.182;7.890;2023-06-22T11:29:34;36.70;93.60
21648;DHT22;10985;54.182;7.890;2023-06-22T11:32:00;36.70;93.40
21648;DHT22;10985;54.182;7.890;2023-06-22T11:34:25;36.80;94.00
21648;DHT22;10985;54.182;7.890;2023-06-22T11:36:51;36.80;94.00
21648;DHT22;10985;54.182;7.890;2023-06-22T11:39:16;36.90;93.20
21648;DHT22;10985;54.182;7.890;2023-06-22T11:41:42;37.00;93.80
21648;DHT22;10985;54.182;7.890;2023-06-22T11:44:08;37.10;93.70
21648;DHT22;10985;54.182;7.890;2023-06-22T11:46:33;37.20;94.00
21648;DHT22;10985;54.182;7.890;2023-06-22T11:49:00;37.30;93.80
21648;DHT22;10985;54.182;7.890;2023-06-22T11:51:25;37.40;94.00
21648;DHT22;10985;54.182;7.890;2023-06-22T11:53:51;37.40;93.20
21648;DHT22;10985;54.182;7.890;2023-06-22T11:56:16;37.50;93.20
21648;DHT22;10985;54.182;7.890;2023-06-22T11:58:42;37.60;93.00
21648;DHT22;10985;54.182;7.890;2023-06-22T12:01:07;37.60;92.70
21648;DHT22;10985;54.182;7.890;2023-06-22T12:03:33;37.60;92.80
21648;DHT22;10985;54.182;7.890;2023-06-22T12:05:59;37.70;92.70
21648;DHT22;10985;54.182;7.890;2023-06-22T12:08:25;37.80;92.70
21648;DHT22;10985;54.182;7.890;2023-06-22T12:10:50;38.00;92.20
21648;DHT22;10985;54.182;7.890;2023-06-22T12:13:17;38.10;92.20
21648;DHT22;10985;54.182;7.890;2023-06-22T12:15:42;38.10;91.80
21648;DHT22;10985;54.182;7.890;2023-06-22T12:18:08;38.20;91.10
21648;DHT22;10985;54.182;7.890;2023-06-22T12:20:34;38.20;91.10
21648;DHT22;10985;54.182;7.890;2023-06-22T12:22:59;38.20;90.90
21648;DHT22;10985;54.182;7.890;2023-06-22T12:25:25;38.20;90.90
21648;DHT22;10985;54.182;7.890;2023-06-22T12:27:50;38.20;90.80
21648;DHT22;10985;54.182;7.890;2023-06-22T12:30:16;38.20;90.70
21648;DHT22;10985;54.182;7.890;2023-06-22T12:32:42;38.30;90.70
21648;DHT22;10985;54.182;7.890;2023-06-22T12:35:08;38.40;90.80
21648;DHT22;10985;54.182;7.890;2023-06-22T12:37:41;38.30;90.70
21648;DHT22;10985;54.182;7.890;2023-06-22T12:40:08;38.20;90.80
21648;DHT22;10985;54.182;7.890;2023-06-22T12:42:34;38.00;90.70
21648;DHT22;10985;54.182;7.890;2023-06-22T12:44:59;37.80;90.80
21648;DHT22;10985;54.182;7.890;2023-06-22T12:47:25;37.70;90.90
21648;DHT22;10985;54.182;7.890;2023-06-22T12:49:50;37.50;91.20
21648;DHT22;10985;54.182;7.890;2023-06-22T12:52:16;37.50;91.30
21648;DHT22;10985;54.182;7.890;2023-06-22T12:54:41;37.20;91.80
21648;DHT22;10985;54.182;7.890;2023-06-22T12:57:07;37.10;91.80
21648;DHT22;10985;54.182;7.890;2023-06-22T12:59:32;36.80;92.10
21648;DHT22;10985;54.182;7.890;2023-06-22T13:01:58;36.60;92.50
21648;DHT22;10985;54.182;7.890;2023-06-22T13:04:23;36.40;92.70
21648;DHT22;10985;54.182;7.890;2023-06-22T13:06:49;36.20;93.00
21648;DHT22;10985;54.182;7.890;2023-06-22T13:09:15;35.80;93.20
21648;DHT22;10985;54.182;7.890;2023-06-22T13:11:41;35.60;93.60
21648;DHT22;10985;54.182;7.890;2023-06-22T13:14:07;35.30;94.00
21648;DHT22;10985;54.182;7.890;2023-06-22T13:16:32;35.10;94.40
21648;DHT22;10985;54.182;7.890;2023-06-22T13:18:58;34.70;94.80
21648;DHT22;10985;54.182;7.890;2023-06-22T13:21:23;34.30;95.40
21648;DHT22;10985;54.182;7.890;2023-06-22T13:23:49;33.90;96.00
21648;DHT22;10985;54.182;7.890;2023-06-22T13:26:15;33.60;96.90
21648;DHT22;10985;54.182;7.890;2023-06-22T13:28:40;33.20;97.30
21648;DHT22;10985;54.182;7.890;2023-06-22T13:31:05;32.90;98.10
21648;DHT22;10985;54.182;7.890;2023-06-22T13:33:31;32.60;99.00
21648;DHT22;10985;54.182;7.890;2023-06-22T13:35:56;32.30;99.50
21648;DHT22;10985;54.182;7.890;2023-06-22T13:38:22;31.90;99.90
21648;DHT22;10985;54.182;7.890;2023-06-22T13:40:48;31.60;99.90
21648;DHT22;10985;54.182;7.890;2023-06-22T13:43:14;31.30;99.90
21648;DHT22;10985;54.182;7.890;2023-06-22T13:45:41;31.00;99.90
21648;DHT22;10985;54.182;7.890;2023-06-22T13:48:07;30.70;99.90
21648;DHT22;10985;54.182;7.890;2023-06-22T13:50:32;30.50;99.90
21648;DHT22;10985;54.182;7.890;2023-06-22T13:52:58;30.20;99.90
21648;DHT22;10985;54.182;7.890;2023-06-22T13:55:23;30.00;99.90
21648;DHT22;10985;54.182;7.890;2023-06-22T13:57:49;29.70;99.90
21648;DHT22;10985;54.182;7.890;2023-06-22T14:00:15;29.50;99.90
21648;DHT22;10985;54.182;7.890;2023-06-22T14:02:40;29.40;99.90
21648;DHT22;10985;54.182;7.890;2023-06-22T14:05:07;29.20;99.90
21648;DHT22;10985;54.182;7.890;2023-06-22T14:07:33;29.10;99.90
21648;DHT22;10985;54.182;7.890;2023-06-22T14:09:59;29.00;99.90
21648;DHT22;10985;54.182;7.890;2023-06-22T14:12:25;28.90;99.90
21648;DHT22;10985;54.182;7.890;2023-06-22T14:14:50;28.70;99.90
21648;DHT22;10985;54.182;7.890;2023-06-22T14:17:16;28.60;99.90
21648;DHT22;10985;54.182;7.890;2023-06-22T14:19:41;28.40;99.90
21648;DHT22;10985;54.182;7.890;2023-06-22T14:22:07;28.30;99.90
21648;DHT22;10985;54.182;7.890;2023-06-22T14:24:32;28.10;99.90
21648;DHT22;10985;54.182;7.890;2023-06-22T14:26:58;28.00;99.90
21648;DHT22;10985;54.182;7.890;2023-06-22T14:29:25;27.80;99.90
21648;DHT22;10985;54.182;7.890;2023-06-22T14:31:51;27.70;99.90
21648;DHT22;10985;54.182;7.890;2023-06-22T14:34:16;27.60;99.90
21648;DHT22;10985;54.182;7.890;2023-06-22T14:36:42;27.50;99.90
21648;DHT22;10985;54.182;7.890;2023-06-22T14:39:09;27.40;99.90
21648;DHT22;10985;54.182;7.890;2023-06-22T14:41:34;27.30;99.90
21648;DHT22;10985;54.182;7.890;2023-06-22T14:44:00;27.20;99.90
21648;DHT22;10985;54.182;7.890;2023-06-22T14:46:25;27.10;99.90
21648;DHT22;10985;54.182;7.890;2023-06-22T14:48:51;27.10;99.90
21648;DHT22;10985;54.182;7.890;2023-06-22T14:51:16;27.00;99.90
21648;DHT22;10985;54.182;7.890;2023-06-22T14:53:43;26.90;99.90
21648;DHT22;10985;54.182;7.890;2023-06-22T14:56:09;26.80;99.90
21648;DHT22;10985;54.182;7.890;2023-06-22T14:58:35;26.70;99.90
21648;DHT22;10985;54.182;7.890;2023-06-22T15:01:03;26.70;99.90
21648;DHT22;10985;54.182;7.890;2023-06-22T15:03:34;26.60;99.90
21648;DHT22;10985;54.182;7.890;2023-06-22T15:06:01;26.50;99.90
21648;DHT22;10985;54.182;7.890;2023-06-22T15:08:27;26.30;99.90
21648;DHT22;10985;54.182;7.890;2023-06-22T15:10:53;26.20;99.90
21648;DHT22;10985;54.182;7.890;2023-06-22T15:13:18;26.10;99.90
21648;DHT22;10985;54.182;7.890;2023-06-22T15:15:46;26.00;99.90
21648;DHT22;10985;54.182;7.890;2023-06-22T15:18:16;25.80;99.90
21648;DHT22;10985;54.182;7.890;2023-06-22T15:20:42;25.70;99.90
21648;DHT22;10985;54.182;7.890;2023-06-22T15:23:11;25.60;99.90
21648;DHT22;10985;54.182;7.890;2023-06-22T15:25:36;25.50;99.90
21648;DHT22;10985;54.182;7.890;2023-06-22T15:28:02;25.50;99.90
21648;DHT22;10985;54.182;7.890;2023-06-22T15:30:28;25.30;99.90
21648;DHT22;10985;54.182;7.890;2023-06-22T15:32:54;25.20;99.90